createdAt,value
2018-06-11T00:00:15.095Z,943.34
2018-06-11T00:01:15.094Z,943.35
2018-06-11T00:02:15.085Z,943.34
2018-06-11T00:03:15.087Z,943.32
2018-06-11T00:04:15.082Z,943.33
2018-06-11T00:05:15.127Z,943.32
2018-06-11T00:06:15.080Z,943.32
2018-06-11T00:07:15.082Z,943.35
2018-06-11T00:08:15.076Z,943.31
2018-06-11T00:09:15.076Z,943.33
2018-06-11T00:10:15.073Z,943.27
2018-06-11T00:11:15.067Z,943.25
2018-06-11T00:12:15.067Z,943.23
2018-06-11T00:13:15.074Z,943.21
2018-06-11T00:14:15.074Z,943.20
2018-06-11T00:15:15.072Z,943.19
2018-06-11T00:16:15.061Z,943.20
2018-06-11T00:17:15.058Z,943.21
2018-06-11T00:18:15.051Z,943.24
2018-06-11T00:19:15.050Z,943.23
2018-06-11T00:20:15.046Z,943.24
2018-06-11T00:21:15.046Z,943.26
2018-06-11T00:22:15.046Z,943.23
2018-06-11T00:23:15.039Z,943.27
2018-06-11T00:24:15.033Z,943.25
2018-06-11T00:25:15.039Z,943.25
2018-06-11T00:26:15.030Z,943.26
2018-06-11T00:27:15.032Z,943.24
2018-06-11T00:28:15.024Z,943.22
2018-06-11T00:29:15.030Z,943.27
2018-06-11T00:30:15.022Z,943.23
2018-06-11T00:31:15.040Z,943.21
2018-06-11T00:32:15.032Z,943.20
2018-06-11T00:33:15.016Z,943.20
2018-06-11T00:34:15.017Z,943.19
2018-06-11T00:35:15.019Z,943.21
2018-06-11T00:36:15.015Z,943.17
2018-06-11T00:37:15.004Z,943.16
2018-06-11T00:38:15.013Z,943.18
2018-06-11T00:39:15.012Z,943.13
2018-06-11T00:40:15.004Z,943.10
2018-06-11T00:41:14.995Z,943.10
2018-06-11T00:42:14.998Z,943.02
2018-06-11T00:43:14.988Z,943.03
2018-06-11T00:44:14.992Z,943.00
2018-06-11T00:45:15.041Z,942.97
2018-06-11T00:46:14.985Z,942.98
2018-06-11T00:47:15.020Z,942.98
2018-06-11T00:48:14.996Z,942.94
2018-06-11T00:49:15.008Z,942.90
2018-06-11T00:50:14.982Z,942.90
2018-06-11T00:51:14.979Z,942.90
2018-06-11T00:52:15.024Z,942.94
2018-06-11T00:53:14.968Z,942.94
2018-06-11T00:54:14.964Z,942.92
2018-06-11T00:55:14.963Z,942.96
2018-06-11T00:56:14.959Z,942.99
2018-06-11T00:57:14.957Z,943.03
2018-06-11T00:58:14.955Z,943.03
2018-06-11T00:59:14.954Z,943.06
2018-06-11T01:00:14.948Z,943.05
2018-06-11T01:01:14.946Z,943.06
2018-06-11T01:02:14.947Z,943.08
2018-06-11T01:03:14.943Z,943.09
2018-06-11T01:04:14.945Z,943.07
2018-06-11T01:05:14.942Z,943.04
2018-06-11T01:06:14.927Z,943.03
2018-06-11T01:07:14.932Z,942.98
2018-06-11T01:08:14.931Z,942.95
2018-06-11T01:09:14.925Z,942.94
2018-06-11T01:10:14.925Z,942.88
2018-06-11T01:11:14.925Z,942.87
2018-06-11T01:12:14.919Z,942.88
2018-06-11T01:13:14.916Z,942.84
2018-06-11T01:14:14.960Z,942.84
2018-06-11T01:15:14.909Z,942.83
2018-06-11T01:16:14.906Z,942.81
2018-06-11T01:17:14.908Z,942.80
2018-06-11T01:18:14.955Z,942.81
2018-06-11T01:19:14.899Z,942.79
2018-06-11T01:20:14.945Z,942.82
2018-06-11T01:21:14.895Z,942.79
2018-06-11T01:22:14.896Z,942.80
2018-06-11T01:23:14.893Z,942.77
2018-06-11T01:24:14.895Z,942.73
2018-06-11T01:25:14.888Z,942.76
2018-06-11T01:26:14.881Z,942.73
2018-06-11T01:27:14.877Z,942.72
2018-06-11T01:28:14.875Z,942.70
2018-06-11T01:29:14.875Z,942.72
2018-06-11T01:30:14.870Z,942.66
2018-06-11T02:04:44.538Z,942.59
2018-06-11T02:05:44.504Z,942.61
2018-06-11T02:07:37.462Z,942.61
2018-06-11T02:08:37.432Z,942.62
2018-06-11T02:10:30.439Z,942.61
2018-06-11T02:11:30.394Z,942.58
2018-06-11T02:13:23.394Z,942.52
2018-06-11T02:14:23.391Z,942.51
2018-06-11T02:16:16.426Z,942.52
2018-06-11T02:17:16.395Z,942.46
2018-06-11T02:19:09.409Z,942.43
2018-06-11T02:20:09.397Z,942.42
2018-06-11T02:22:02.415Z,942.42
2018-06-11T02:23:02.388Z,942.38
2018-06-11T02:24:55.424Z,942.38
2018-06-11T02:25:55.403Z,942.33
2018-06-11T02:27:49.400Z,942.31
2018-06-11T02:28:49.376Z,942.33
2018-06-11T02:31:33.398Z,942.28
2018-06-11T02:32:33.366Z,942.26
2018-06-11T02:34:26.365Z,942.25
2018-06-11T02:35:26.352Z,942.21
2018-06-11T02:37:19.366Z,942.26
2018-06-11T02:38:19.339Z,942.29
2018-06-11T02:40:12.345Z,942.23
2018-06-11T02:41:12.332Z,942.24
2018-06-11T02:43:05.353Z,942.22
2018-06-11T02:44:05.326Z,942.24
2018-06-11T02:45:58.283Z,942.27
2018-06-11T02:46:58.274Z,942.27
2018-06-11T02:48:51.212Z,942.28
2018-06-11T02:49:51.198Z,942.29
2018-06-11T02:51:44.173Z,942.28
2018-06-11T02:52:44.143Z,942.30
2018-06-11T02:54:37.090Z,942.30
2018-06-11T02:55:37.077Z,942.29
2018-06-11T02:57:29.994Z,942.35
2018-06-11T02:58:29.964Z,942.33
2018-06-11T03:00:23.018Z,942.35
2018-06-11T03:01:23.009Z,942.37
2018-06-11T03:03:15.957Z,942.27
2018-06-11T03:04:15.921Z,942.31
2018-06-11T03:06:08.955Z,942.24
2018-06-11T03:07:08.912Z,942.24
2018-06-11T03:09:01.941Z,942.22
2018-06-11T03:10:01.918Z,942.24
2018-06-11T03:11:54.942Z,942.22
2018-06-11T03:12:54.918Z,942.24
2018-06-11T03:14:47.934Z,942.27
2018-06-11T03:15:47.923Z,942.27
2018-06-11T03:17:40.945Z,942.32
2018-06-11T03:18:40.920Z,942.28
2018-06-11T03:20:33.931Z,942.29
2018-06-11T03:21:33.916Z,942.26
2018-06-11T03:23:26.830Z,942.23
2018-06-11T03:24:26.804Z,942.24
2018-06-11T03:26:19.757Z,942.16
2018-06-11T03:27:19.746Z,942.12
2018-06-11T03:29:13.677Z,942.12
2018-06-11T03:30:13.648Z,942.08
2018-06-11T03:32:06.688Z,942.07
2018-06-11T03:33:06.669Z,942.05
2018-06-11T03:34:59.573Z,942.08
2018-06-11T03:35:59.570Z,942.07
2018-06-11T03:37:52.494Z,942.01
2018-06-11T03:38:52.468Z,942.03
2018-06-11T03:40:45.471Z,941.98
2018-06-11T03:41:45.462Z,942.01
2018-06-11T03:43:38.485Z,942.00
2018-06-11T03:44:38.460Z,941.99
2018-06-11T03:46:31.443Z,942.00
2018-06-11T03:47:31.433Z,941.98
2018-06-11T03:49:24.432Z,942.03
2018-06-11T03:50:24.398Z,942.02
2018-06-11T03:52:17.455Z,942.07
2018-06-11T03:53:17.429Z,942.05
2018-06-11T03:55:10.331Z,942.05
2018-06-11T03:56:10.315Z,942.04
2018-06-11T03:58:04.298Z,942.06
2018-06-11T03:59:04.273Z,942.06
2018-06-11T04:00:57.195Z,942.04
2018-06-11T04:01:57.191Z,942.08
2018-06-11T04:03:50.148Z,942.07
2018-06-11T04:04:50.096Z,942.03
2018-06-11T04:06:42.998Z,942.03
2018-06-11T04:07:42.982Z,942.04
2018-06-11T04:09:36.003Z,942.00
2018-06-11T04:10:35.981Z,942.01
2018-06-11T04:12:28.921Z,941.95
2018-06-11T04:13:28.898Z,941.94
2018-06-11T04:15:21.807Z,941.92
2018-06-11T04:16:21.783Z,941.93
2018-06-11T04:18:14.733Z,941.92
2018-06-11T04:19:14.750Z,941.91
2018-06-11T04:21:07.617Z,941.90
2018-06-11T04:22:07.597Z,941.92
2018-06-11T04:24:00.539Z,941.88
2018-06-11T04:25:00.507Z,941.87
2018-06-11T04:26:53.456Z,941.85
2018-06-11T04:27:53.443Z,941.85
2018-06-11T04:29:46.387Z,941.84
2018-06-11T04:30:46.388Z,941.83
2018-06-11T04:32:39.339Z,941.89
2018-06-11T04:33:39.310Z,941.89
2018-06-11T04:35:32.502Z,941.89
2018-06-11T04:36:32.493Z,941.88
2018-06-11T04:38:25.468Z,941.90
2018-06-11T04:39:25.444Z,941.88
2018-06-11T04:41:18.420Z,941.89
2018-06-11T04:42:18.498Z,941.85
2018-06-11T04:44:11.319Z,941.89
2018-06-11T04:45:11.300Z,941.91
2018-06-11T04:47:04.320Z,941.91
2018-06-11T04:48:04.309Z,941.90
2018-06-11T04:49:57.358Z,941.88
2018-06-11T04:50:57.334Z,941.87
2018-06-11T04:52:50.380Z,941.89
2018-06-11T04:53:50.339Z,941.84
2018-06-11T04:55:43.285Z,941.84
2018-06-11T04:56:43.289Z,941.80
2018-06-11T04:58:36.350Z,941.79
2018-06-11T04:59:36.330Z,941.77
2018-06-11T05:01:29.369Z,941.80
2018-06-11T05:02:29.345Z,941.74
2018-06-11T05:04:22.278Z,941.74
2018-06-11T05:05:22.245Z,941.72
2018-06-11T05:07:15.220Z,941.70
2018-06-11T05:08:15.245Z,941.68
2018-06-11T05:10:08.205Z,941.71
2018-06-11T05:11:08.179Z,941.65
2018-06-11T05:13:01.096Z,941.66
2018-06-11T05:14:01.074Z,941.67
2018-06-11T05:15:54.019Z,941.70
2018-06-11T05:16:54.013Z,941.71
2018-06-11T05:18:46.989Z,941.76
2018-06-11T05:19:46.983Z,941.75
2018-06-11T05:21:39.883Z,941.71
2018-06-11T05:22:39.879Z,941.74
2018-06-11T05:24:32.847Z,941.72
2018-06-11T05:25:32.811Z,941.76
2018-06-11T05:27:25.881Z,941.71
2018-06-11T05:28:25.877Z,941.76
2018-06-11T05:30:18.826Z,941.75
2018-06-11T05:31:18.798Z,941.77
2018-06-11T05:33:11.741Z,941.78
2018-06-11T05:34:11.719Z,941.79
2018-06-11T05:36:04.642Z,941.82
2018-06-11T05:37:04.627Z,941.84
2018-06-11T05:38:57.607Z,941.87
2018-06-11T05:39:57.582Z,941.88
2018-06-11T05:41:50.560Z,941.90
2018-06-11T05:42:50.542Z,941.90
2018-06-11T05:44:43.493Z,941.92
2018-06-11T05:45:43.477Z,941.96
2018-06-11T05:46:43.490Z,942.00
2018-06-11T05:47:43.480Z,941.99
2018-06-11T05:48:43.480Z,941.98
2018-06-11T05:49:43.483Z,941.97
2018-06-11T05:50:43.489Z,941.99
2018-06-11T05:51:43.487Z,942.02
2018-06-11T05:52:43.493Z,942.00
2018-06-11T05:53:43.500Z,942.07
2018-06-11T05:54:43.486Z,942.05
2018-06-11T05:55:43.481Z,942.04
2018-06-11T05:56:43.495Z,942.05
2018-06-11T05:57:43.493Z,942.05
2018-06-11T05:58:43.500Z,942.05
2018-06-11T05:59:43.501Z,942.04
2018-06-11T06:00:43.502Z,942.04
2018-06-11T06:01:43.499Z,942.02
2018-06-11T06:02:43.517Z,942.04
2018-06-11T06:03:43.509Z,942.09
2018-06-11T06:04:43.515Z,942.10
2018-06-11T06:05:43.516Z,942.12
2018-06-11T06:06:43.518Z,942.09
2018-06-11T06:07:43.525Z,942.14
2018-06-11T06:08:43.562Z,942.15
2018-06-11T06:09:43.540Z,942.20
2018-06-11T06:10:43.532Z,942.19
2018-06-11T06:11:43.533Z,942.22
2018-06-11T06:12:43.536Z,942.18
2018-06-11T06:13:43.541Z,942.20
2018-06-11T06:14:43.547Z,942.21
2018-06-11T06:15:43.551Z,942.21
2018-06-11T06:16:43.555Z,942.19
2018-06-11T06:17:43.595Z,942.18
2018-06-11T06:18:43.558Z,942.20
2018-06-11T06:19:43.567Z,942.21
2018-06-11T06:20:43.572Z,942.19
2018-06-11T06:21:43.579Z,942.19
2018-06-11T06:22:43.622Z,942.21
2018-06-11T06:23:43.588Z,942.19
2018-06-11T06:24:43.604Z,942.16
2018-06-11T06:25:43.601Z,942.14
2018-06-11T06:26:43.629Z,942.14
2018-06-11T06:27:43.613Z,942.18
2018-06-11T06:28:43.615Z,942.14
2018-06-11T06:29:43.623Z,942.12
2018-06-11T06:30:43.625Z,942.16
2018-06-11T06:31:43.629Z,942.13
2018-06-11T06:32:43.637Z,942.18
2018-06-11T06:33:43.637Z,942.16
2018-06-11T06:34:43.748Z,942.15
2018-06-11T06:35:43.652Z,942.20
2018-06-11T06:36:43.658Z,942.17
2018-06-11T06:37:43.663Z,942.16
2018-06-11T06:38:43.669Z,942.14
2018-06-11T06:39:43.689Z,942.12
2018-06-11T06:40:43.685Z,942.10
2018-06-11T06:41:43.687Z,942.12
2018-06-11T06:42:43.686Z,942.11
2018-06-11T06:43:43.702Z,942.11
2018-06-11T06:44:43.702Z,942.09
2018-06-11T06:45:43.712Z,942.13
2018-06-11T06:46:43.712Z,942.14
2018-06-11T06:47:43.721Z,942.15
2018-06-11T06:48:43.724Z,942.17
2018-06-11T06:49:43.732Z,942.15
2018-06-11T06:50:43.738Z,942.17
2018-06-11T06:51:43.741Z,942.20
2018-06-11T06:52:43.781Z,942.19
2018-06-11T06:53:43.752Z,942.18
2018-06-11T06:54:43.753Z,942.18
2018-06-11T06:55:43.763Z,942.22
2018-06-11T06:56:43.769Z,942.22
2018-06-11T06:57:43.771Z,942.23
2018-06-11T06:58:43.777Z,942.22
2018-06-11T06:59:43.782Z,942.25
2018-06-11T07:00:43.791Z,942.22
2018-06-11T07:01:43.795Z,942.22
2018-06-11T07:02:43.793Z,942.21
2018-06-11T07:03:43.807Z,942.28
2018-06-11T07:04:43.810Z,942.26
2018-06-11T07:05:43.822Z,942.29
2018-06-11T07:06:43.827Z,942.18
2018-06-11T07:07:43.841Z,942.20
2018-06-11T07:08:43.842Z,942.29
2018-06-11T07:09:43.847Z,942.17
2018-06-11T07:10:43.857Z,942.31
2018-06-11T07:11:43.864Z,942.25
2018-06-11T07:12:43.874Z,942.25
2018-06-11T07:13:43.916Z,942.10
2018-06-11T07:14:43.892Z,942.10
2018-06-11T07:15:43.899Z,942.10
2018-06-11T07:16:43.913Z,942.07
2018-06-11T07:17:43.923Z,942.05
2018-06-11T07:18:43.935Z,942.05
2018-06-11T07:19:43.938Z,942.03
2018-06-11T07:20:43.947Z,942.09
2018-06-11T07:21:43.961Z,942.07
2018-06-11T07:22:44.033Z,942.06
2018-06-11T07:23:44.023Z,942.03
2018-06-11T07:24:43.993Z,942.02
2018-06-11T07:25:43.990Z,941.97
2018-06-11T07:26:44.005Z,941.98
2018-06-11T07:27:44.009Z,942.02
2018-06-11T07:28:44.025Z,942.01
2018-06-11T07:29:44.035Z,941.99
2018-06-11T07:30:44.045Z,941.95
2018-06-11T07:31:44.050Z,941.96
2018-06-11T07:32:44.068Z,941.96
2018-06-11T07:33:44.070Z,941.95
2018-06-11T07:34:44.077Z,941.91
2018-06-11T07:35:44.112Z,941.94
2018-06-11T07:36:44.096Z,942.00
2018-06-11T07:37:44.102Z,942.01
2018-06-11T07:38:44.129Z,941.99
2018-06-11T07:39:44.119Z,942.02
2018-06-11T07:40:44.134Z,941.97
2018-06-11T07:41:44.143Z,941.98
2018-06-11T07:42:44.147Z,941.97
2018-06-11T07:43:44.162Z,941.95
2018-06-11T07:44:44.167Z,941.95
2018-06-11T07:45:44.221Z,941.94
2018-06-11T07:46:44.183Z,942.00
2018-06-11T07:47:44.193Z,942.07
2018-06-11T07:48:44.202Z,942.00
2018-06-11T07:49:44.208Z,942.04
2018-06-11T07:50:44.264Z,942.11
2018-06-11T07:51:44.242Z,942.11
2018-06-11T07:52:44.252Z,942.07
2018-06-11T07:53:44.254Z,942.11
2018-06-11T07:54:44.318Z,942.12
2018-06-11T07:55:44.282Z,942.08
2018-06-11T07:56:44.290Z,942.15
2018-06-11T07:57:44.302Z,942.11
2018-06-11T07:58:44.320Z,942.10
2018-06-11T07:59:44.328Z,942.06
2018-06-11T08:00:44.347Z,942.04
2018-06-11T08:01:44.367Z,942.02
2018-06-11T08:02:44.373Z,942.02
2018-06-11T08:03:44.387Z,941.98
2018-06-11T08:04:44.418Z,942.01
2018-06-11T08:05:44.427Z,942.04
2018-06-11T08:06:44.457Z,942.06
2018-06-11T08:07:44.501Z,942.11
2018-06-11T08:08:44.535Z,942.06
2018-06-11T08:09:44.496Z,942.07
2018-06-11T08:10:44.539Z,942.00
2018-06-11T08:11:44.511Z,942.02
2018-06-11T08:12:44.540Z,941.98
2018-06-11T08:13:44.583Z,941.94
2018-06-11T08:14:44.560Z,941.93
2018-06-11T08:15:44.574Z,941.93
2018-06-11T08:16:44.591Z,941.92
2018-06-11T08:17:44.603Z,941.93
2018-06-11T08:18:44.613Z,941.94
2018-06-11T08:19:44.629Z,942.00
2018-06-11T08:20:44.657Z,941.94
2018-06-11T08:21:44.663Z,941.90
2018-06-11T08:22:44.674Z,941.87
2018-06-11T08:23:44.685Z,941.91
2018-06-11T08:24:44.699Z,941.95
2018-06-11T08:25:44.716Z,941.87
2018-06-11T08:26:44.736Z,941.88
2018-06-11T08:27:44.759Z,941.88
2018-06-11T08:28:44.759Z,941.88
2018-06-11T08:29:44.766Z,941.82
2018-06-11T08:30:44.785Z,941.90
2018-06-11T08:31:44.801Z,941.94
2018-06-11T08:32:44.816Z,941.96
2018-06-11T08:33:44.851Z,941.91
2018-06-11T08:34:44.845Z,941.88
2018-06-11T08:35:44.862Z,941.88
2018-06-11T08:36:44.878Z,941.92
2018-06-11T08:37:44.891Z,941.92
2018-06-11T08:38:44.903Z,941.90
2018-06-11T08:39:44.915Z,941.89
2018-06-11T08:40:44.929Z,941.89
2018-06-11T08:41:44.949Z,941.92
2018-06-11T08:42:44.957Z,941.94
2018-06-11T08:43:44.970Z,941.96
2018-06-11T08:44:44.985Z,941.94
2018-06-11T08:45:44.998Z,941.94
2018-06-11T08:46:45.012Z,941.93
2018-06-11T08:47:45.024Z,941.92
2018-06-11T08:48:45.034Z,941.97
2018-06-11T08:49:45.045Z,941.89
2018-06-11T08:50:45.070Z,941.85
2018-06-11T08:51:45.073Z,941.83
2018-06-11T08:52:45.084Z,941.87
2018-06-11T08:53:45.095Z,941.88
2018-06-11T08:54:45.110Z,941.88
2018-06-11T08:55:45.122Z,941.86
2018-06-11T08:56:45.135Z,941.82
2018-06-11T08:57:45.144Z,941.80
2018-06-11T08:58:45.161Z,941.78
2018-06-11T08:59:45.185Z,941.75
2018-06-11T09:00:45.191Z,941.77
2018-06-11T09:01:45.208Z,941.76
2018-06-11T09:02:45.218Z,941.74
2018-06-11T09:03:45.237Z,941.76
2018-06-11T09:04:45.250Z,941.75
2018-06-11T09:05:45.260Z,941.75
2018-06-11T09:06:45.277Z,941.76
2018-06-11T09:07:45.281Z,941.78
2018-06-11T09:08:45.302Z,941.76
2018-06-11T09:09:45.316Z,941.76
2018-06-11T09:10:45.327Z,941.78
2018-06-11T09:11:45.339Z,941.73
2018-06-11T09:12:45.357Z,941.73
2018-06-11T09:13:45.369Z,941.71
2018-06-11T09:14:45.374Z,941.70
2018-06-11T09:15:45.385Z,941.71
2018-06-11T09:16:45.404Z,941.80
2018-06-11T09:17:45.411Z,941.79
2018-06-11T09:18:45.429Z,941.78
2018-06-11T09:19:45.436Z,941.75
2018-06-11T09:20:45.449Z,941.75
2018-06-11T09:21:45.461Z,941.72
2018-06-11T09:22:45.476Z,941.69
2018-06-11T09:23:45.484Z,941.71
2018-06-11T09:24:45.501Z,941.73
2018-06-11T09:25:45.518Z,941.73
2018-06-11T09:26:45.524Z,941.74
2018-06-11T09:27:45.535Z,941.77
2018-06-11T09:28:45.551Z,941.76
2018-06-11T09:29:45.557Z,941.76
2018-06-11T09:30:45.571Z,941.75
2018-06-11T09:31:45.586Z,941.75
2018-06-11T09:32:45.599Z,941.73
2018-06-11T09:33:45.609Z,941.69
2018-06-11T09:34:45.628Z,941.70
2018-06-11T09:35:45.634Z,941.75
2018-06-11T09:36:45.652Z,941.73
2018-06-11T09:37:45.670Z,941.72
2018-06-11T09:38:45.682Z,941.75
2018-06-11T09:39:45.691Z,941.73
2018-06-11T09:40:45.707Z,941.78
2018-06-11T09:41:45.719Z,941.74
2018-06-11T09:42:45.745Z,941.73
2018-06-11T09:43:45.772Z,941.75
2018-06-11T09:44:45.755Z,941.73
2018-06-11T09:45:45.773Z,941.70
2018-06-11T09:46:45.783Z,941.69
2018-06-11T09:47:45.809Z,941.72
2018-06-11T09:48:45.806Z,941.71
2018-06-11T09:49:45.823Z,941.70
2018-06-11T09:50:45.832Z,941.67
2018-06-11T09:51:45.864Z,941.67
2018-06-11T09:52:45.861Z,941.67
2018-06-11T09:53:45.874Z,941.71
2018-06-11T09:54:45.884Z,941.71
2018-06-11T09:55:45.914Z,941.71
2018-06-11T09:56:45.911Z,941.74
2018-06-11T09:57:45.923Z,941.73
2018-06-11T09:58:45.929Z,941.71
2018-06-11T09:59:45.941Z,941.70
2018-06-11T10:00:45.951Z,941.63
2018-06-11T10:01:45.970Z,941.63
2018-06-11T10:02:45.975Z,941.66
2018-06-11T10:03:45.984Z,941.64
2018-06-11T10:04:46.019Z,941.65
2018-06-11T10:05:46.009Z,941.64
2018-06-11T10:06:46.062Z,941.65
2018-06-11T10:07:46.070Z,941.71
2018-06-11T10:08:46.971Z,941.66
2018-06-11T10:09:46.055Z,941.70
2018-06-11T10:10:46.059Z,941.69
2018-06-11T10:11:46.069Z,941.73
2018-06-11T10:12:46.076Z,941.75
2018-06-11T10:13:46.087Z,941.76
2018-06-11T10:14:46.106Z,941.70
2018-06-11T10:15:46.123Z,941.66
2018-06-11T10:16:46.131Z,941.65
2018-06-11T10:17:46.140Z,941.59
2018-06-11T10:18:46.157Z,941.59
2018-06-11T10:19:46.163Z,941.54
2018-06-11T10:20:46.178Z,941.49
2018-06-11T10:21:46.199Z,941.47
2018-06-11T10:22:46.201Z,941.40
2018-06-11T10:23:46.212Z,941.36
2018-06-11T10:24:46.268Z,941.39
2018-06-11T10:25:46.256Z,941.32
2018-06-11T10:26:46.242Z,941.37
2018-06-11T10:27:46.254Z,941.32
2018-06-11T10:28:46.276Z,941.34
2018-06-11T10:29:46.292Z,941.35
2018-06-11T10:30:46.296Z,941.35
2018-06-11T10:31:46.312Z,941.36
2018-06-11T10:32:46.325Z,941.38
2018-06-11T10:33:46.335Z,941.33
2018-06-11T10:34:46.356Z,941.29
2018-06-11T10:35:46.360Z,941.33
2018-06-11T10:36:46.365Z,941.30
2018-06-11T10:37:46.385Z,941.34
2018-06-11T10:38:46.392Z,941.31
2018-06-11T10:39:46.396Z,941.29
2018-06-11T10:40:46.411Z,941.29
2018-06-11T10:41:46.423Z,941.27
2018-06-11T10:42:46.434Z,941.23
2018-06-11T10:43:46.439Z,941.21
2018-06-11T10:44:46.451Z,941.32
2018-06-11T10:45:46.459Z,941.33
2018-06-11T10:46:46.477Z,941.30
2018-06-11T10:47:46.480Z,941.31
2018-06-11T10:48:46.489Z,941.33
2018-06-11T10:49:46.486Z,941.38
2018-06-11T10:50:46.513Z,941.40
2018-06-11T10:51:46.515Z,941.42
2018-06-11T10:52:46.517Z,941.42
2018-06-11T10:53:46.531Z,941.43
2018-06-11T10:54:46.540Z,941.38
2018-06-11T10:55:46.553Z,941.40
2018-06-11T10:56:46.552Z,941.37
2018-06-11T10:57:46.564Z,941.36
2018-06-11T10:58:46.570Z,941.36
2018-06-11T10:59:46.577Z,941.38
2018-06-11T11:00:46.588Z,941.41
2018-06-11T11:01:46.598Z,941.37
2018-06-11T11:02:46.615Z,941.39
2018-06-11T11:03:46.607Z,941.42
2018-06-11T11:04:46.615Z,941.44
2018-06-11T11:05:46.624Z,941.40
2018-06-11T11:06:46.631Z,941.42
2018-06-11T11:07:46.635Z,941.35
2018-06-11T11:08:46.685Z,941.31
2018-06-11T11:09:46.644Z,941.28
2018-06-11T11:10:46.653Z,941.27
2018-06-11T11:11:46.671Z,941.22
2018-06-11T11:12:46.670Z,941.23
2018-06-11T11:13:46.673Z,941.19
2018-06-11T11:14:46.676Z,941.17
2018-06-11T11:15:46.687Z,941.15
2018-06-11T11:16:46.705Z,941.16
2018-06-11T11:17:46.696Z,941.13
2018-06-11T11:18:46.706Z,941.11
2018-06-11T11:19:46.715Z,941.08
2018-06-11T11:20:46.718Z,941.08
2018-06-11T11:21:46.725Z,941.02
2018-06-11T11:22:46.727Z,941.00
2018-06-11T11:23:46.737Z,940.97
2018-06-11T11:24:46.755Z,940.95
2018-06-11T11:25:46.753Z,940.94
2018-06-11T11:26:46.748Z,940.92
2018-06-11T11:27:46.756Z,940.91
2018-06-11T11:28:46.772Z,940.87
2018-06-11T11:29:46.776Z,940.83
2018-06-11T11:30:46.785Z,940.80
2018-06-11T11:31:46.791Z,940.81
2018-06-11T11:32:46.793Z,940.81
2018-06-11T11:33:46.851Z,940.78
2018-06-11T11:34:46.811Z,940.75
2018-06-11T11:35:46.819Z,940.77
2018-06-11T11:36:46.827Z,940.80
2018-06-11T11:37:46.830Z,940.78
2018-06-11T11:38:46.843Z,940.72
2018-06-11T11:39:46.852Z,940.73
2018-06-11T11:40:46.850Z,940.72
2018-06-11T11:41:46.874Z,940.71
2018-06-11T11:42:46.866Z,940.68
2018-06-11T11:43:46.873Z,940.69
2018-06-11T11:44:46.882Z,940.68
2018-06-11T11:45:46.892Z,940.67
2018-06-11T11:46:46.898Z,940.69
2018-06-11T11:47:46.904Z,940.69
2018-06-11T11:48:46.912Z,940.67
2018-06-11T11:49:46.920Z,940.69
2018-06-11T11:50:46.926Z,940.67
2018-06-11T11:51:46.932Z,940.66
2018-06-11T11:52:46.941Z,940.66
2018-06-11T11:53:46.946Z,940.68
2018-06-11T11:54:46.957Z,940.64
2018-06-11T11:55:46.960Z,940.65
2018-06-11T11:56:46.972Z,940.62
2018-06-11T11:57:46.977Z,940.66
2018-06-11T11:58:46.991Z,940.62
2018-06-11T11:59:46.997Z,940.54
2018-06-11T12:00:47.002Z,940.50
2018-06-11T12:01:47.072Z,940.50
2018-06-11T12:02:47.019Z,940.44
2018-06-11T12:03:47.024Z,940.46
2018-06-11T12:04:47.031Z,940.43
2018-06-11T12:05:47.042Z,940.42
2018-06-11T12:06:47.060Z,940.38
2018-06-11T12:07:47.051Z,940.34
2018-06-11T12:08:47.064Z,940.34
2018-06-11T12:09:47.064Z,940.29
2018-06-11T12:10:47.075Z,940.23
2018-06-11T12:11:47.083Z,940.19
2018-06-11T12:12:47.086Z,940.19
2018-06-11T12:13:47.128Z,940.15
2018-06-11T12:14:47.106Z,940.17
2018-06-11T12:15:47.109Z,940.18
2018-06-11T12:16:47.115Z,940.18
2018-06-11T12:17:47.126Z,940.15
2018-06-11T12:18:47.133Z,940.14
2018-06-11T12:19:47.132Z,940.15
2018-06-11T12:20:47.139Z,940.20
2018-06-11T12:21:47.147Z,940.19
2018-06-11T12:22:47.153Z,940.17
2018-06-11T12:23:47.159Z,940.13
2018-06-11T12:24:47.162Z,940.10
2018-06-11T12:25:47.225Z,940.11
2018-06-11T12:26:47.180Z,940.12
2018-06-11T12:27:47.182Z,940.14
2018-06-11T12:28:47.190Z,940.14
2018-06-11T12:29:47.191Z,940.14
2018-06-11T12:30:47.200Z,940.09
2018-06-11T12:31:47.204Z,940.07
2018-06-11T12:32:47.212Z,940.02
2018-06-11T12:33:47.211Z,940.00
2018-06-11T12:34:48.019Z,939.93
2018-06-11T12:35:47.229Z,939.97
2018-06-11T12:36:47.228Z,940.02
2018-06-11T12:37:47.240Z,940.03
2018-06-11T12:38:47.246Z,940.08
2018-06-11T12:39:47.273Z,940.10
2018-06-11T12:40:47.247Z,940.06
2018-06-11T12:41:47.263Z,940.11
2018-06-11T12:42:47.266Z,940.12
2018-06-11T12:43:47.269Z,940.10
2018-06-11T12:44:47.275Z,940.10
2018-06-11T12:45:47.291Z,940.08
2018-06-11T12:46:47.302Z,940.10
2018-06-11T12:47:47.296Z,940.11
2018-06-11T12:48:47.299Z,940.05
2018-06-11T12:49:47.308Z,940.08
2018-06-11T12:50:47.311Z,940.07
2018-06-11T12:51:47.317Z,940.04
2018-06-11T12:52:47.334Z,940.05
2018-06-11T12:53:47.330Z,940.03
2018-06-11T12:54:47.340Z,940.04
2018-06-11T12:55:47.341Z,940.06
2018-06-11T12:56:47.348Z,940.04
2018-06-11T12:57:47.354Z,940.04
2018-06-11T12:58:47.369Z,940.06
2018-06-11T12:59:47.366Z,939.98
2018-06-11T13:00:47.376Z,939.99
2018-06-11T13:01:47.375Z,939.95
2018-06-11T13:02:47.386Z,939.90
2018-06-11T13:03:47.393Z,939.89
2018-06-11T13:04:47.414Z,939.90
2018-06-11T13:05:47.404Z,939.85
2018-06-11T13:06:47.413Z,939.82
2018-06-11T13:07:47.412Z,939.73
2018-06-11T13:08:47.425Z,939.68
2018-06-11T13:09:47.428Z,939.68
2018-06-11T13:10:47.436Z,939.71
2018-06-11T13:11:47.447Z,939.71
2018-06-11T13:12:47.454Z,939.77
2018-06-11T13:13:47.452Z,939.79
2018-06-11T13:14:47.476Z,939.80
2018-06-11T13:15:47.469Z,939.77
2018-06-11T13:16:47.480Z,939.76
2018-06-11T13:17:47.485Z,939.76
2018-06-11T13:18:47.484Z,939.77
2018-06-11T13:19:47.499Z,939.79
2018-06-11T13:20:47.502Z,939.80
2018-06-11T13:21:47.511Z,939.80
2018-06-11T13:22:47.523Z,939.81
2018-06-11T13:23:47.527Z,939.80
2018-06-11T13:24:47.534Z,939.79
2018-06-11T13:25:47.550Z,939.82
2018-06-11T13:26:47.549Z,939.83
2018-06-11T13:27:47.559Z,939.81
2018-06-11T13:28:47.566Z,939.87
2018-06-11T13:29:47.583Z,939.88
2018-06-11T13:30:47.580Z,939.87
2018-06-11T13:31:47.584Z,939.90
2018-06-11T13:32:47.591Z,939.89
2018-06-11T13:33:47.603Z,939.92
2018-06-11T13:34:47.611Z,939.94
2018-06-11T13:35:47.619Z,939.95
2018-06-11T13:36:47.628Z,939.92
2018-06-11T13:37:47.635Z,939.86
2018-06-11T13:38:47.643Z,939.84
2018-06-11T13:39:47.645Z,939.83
2018-06-11T13:40:47.659Z,939.81
2018-06-11T13:41:47.673Z,939.82
2018-06-11T13:42:47.674Z,939.80
2018-06-11T13:43:47.675Z,939.78
2018-06-11T13:44:47.687Z,939.79
2018-06-11T13:45:47.696Z,939.76
2018-06-11T13:46:47.704Z,939.72
2018-06-11T13:47:47.708Z,939.69
2018-06-11T13:48:47.716Z,939.70
2018-06-11T13:49:47.726Z,939.66
2018-06-11T13:50:47.731Z,939.67
2018-06-11T13:51:47.735Z,939.66
2018-06-11T13:52:47.736Z,939.61
2018-06-11T13:53:47.752Z,939.62
2018-06-11T13:54:47.755Z,939.59
2018-06-11T13:55:47.766Z,939.58
2018-06-11T13:56:47.766Z,939.61
2018-06-11T13:57:47.778Z,939.60
2018-06-11T13:58:47.784Z,939.61
2018-06-11T13:59:47.798Z,939.64
2018-06-11T14:00:47.796Z,939.61
2018-06-11T14:01:47.797Z,939.61
2018-06-11T14:02:47.813Z,939.60
2018-06-11T14:03:47.823Z,939.65
2018-06-11T14:04:47.823Z,939.64
2018-06-11T14:05:47.857Z,939.62
2018-06-11T14:06:47.841Z,939.66
2018-06-11T14:07:47.847Z,939.65
2018-06-11T14:08:47.841Z,939.66
2018-06-11T14:09:47.862Z,939.64